sensor_id;sensor_type;location;lat;lon;timestamp;P1;durP1;ratioP1;P2;durP2;ratioP2
64957;SDS011;51486;50.232;19.208;2024-02-04T00:02:12;5.30;;;3.20;;
64957;SDS011;51486;50.232;19.208;2024-02-04T00:04:39;4.67;;;3.10;;
64957;SDS011;51486;50.232;19.208;2024-02-04T00:07:05;7.07;;;3.17;;
64957;SDS011;51486;50.232;19.208;2024-02-04T00:09:30;5.23;;;2.53;;
64957;SDS011;51486;50.232;19.208;2024-02-04T00:11:56;7.63;;;3.20;;
64957;SDS011;51486;50.232;19.208;2024-02-04T00:14:23;6.13;;;3.10;;
64957;SDS011;51486;50.232;19.208;2024-02-04T00:16:49;3.90;;;2.33;;
64957;SDS011;51486;50.232;19.208;2024-02-04T00:19:14;4.70;;;2.50;;
64957;SDS011;51486;50.232;19.208;2024-02-04T00:21:39;5.73;;;2.93;;
64957;SDS011;51486;50.232;19.208;2024-02-04T00:24:05;6.30;;;3.53;;
64957;SDS011;51486;50.232;19.208;2024-02-04T00:26:31;6.33;;;3.40;;
64957;SDS011;51486;50.232;19.208;2024-02-04T00:28:56;8.50;;;3.53;;
64957;SDS011;51486;50.232;19.208;2024-02-04T00:31:22;7.67;;;3.90;;
64957;SDS011;51486;50.232;19.208;2024-02-04T00:33:47;9.17;;;4.87;;
64957;SDS011;51486;50.232;19.208;2024-02-04T00:36:12;9.47;;;5.10;;
64957;SDS011;51486;50.232;19.208;2024-02-04T00:38:38;10.90;;;5.03;;
64957;SDS011;51486;50.232;19.208;2024-02-04T00:41:03;13.40;;;6.43;;
64957;SDS011;51486;50.232;19.208;2024-02-04T00:43:30;10.63;;;5.20;;
64957;SDS011;51486;50.232;19.208;2024-02-04T00:45:56;11.73;;;5.83;;
64957;SDS011;51486;50.232;19.208;2024-02-04T00:48:21;15.00;;;5.90;;
64957;SDS011;51486;50.232;19.208;2024-02-04T00:50:47;9.60;;;5.83;;
64957;SDS011;51486;50.232;19.208;2024-02-04T00:53:12;11.00;;;5.43;;
64957;SDS011;51486;50.232;19.208;2024-02-04T00:55:38;11.43;;;4.97;;
64957;SDS011;51486;50.232;19.208;2024-02-04T00:58:03;14.00;;;5.93;;
64957;SDS011;51486;50.232;19.208;2024-02-04T01:00:28;12.80;;;6.40;;
64957;SDS011;51486;50.232;19.208;2024-02-04T01:02:54;13.47;;;6.43;;
64957;SDS011;51486;50.232;19.208;2024-02-04T01:05:19;16.07;;;6.07;;
64957;SDS011;51486;50.232;19.208;2024-02-04T01:07:45;9.80;;;6.43;;
64957;SDS011;51486;50.232;19.208;2024-02-04T01:10:10;15.37;;;6.50;;
64957;SDS011;51486;50.232;19.208;2024-02-04T01:12:35;11.30;;;6.00;;
64957;SDS011;51486;50.232;19.208;2024-02-04T01:15:01;10.60;;;6.10;;
64957;SDS011;51486;50.232;19.208;2024-02-04T01:17:30;10.50;;;5.73;;
64957;SDS011;51486;50.232;19.208;2024-02-04T01:19:55;12.17;;;6.00;;
64957;SDS011;51486;50.232;19.208;2024-02-04T01:22:21;15.33;;;6.33;;
64957;SDS011;51486;50.232;19.208;2024-02-04T01:24:53;11.03;;;6.50;;
64957;SDS011;51486;50.232;19.208;2024-02-04T01:27:18;13.03;;;6.87;;
64957;SDS011;51486;50.232;19.208;2024-02-04T01:29:44;10.77;;;6.33;;
64957;SDS011;51486;50.232;19.208;2024-02-04T01:32:09;16.20;;;7.63;;
64957;SDS011;51486;50.232;19.208;2024-02-04T01:34:34;9.57;;;6.43;;
64957;SDS011;51486;50.232;19.208;2024-02-04T01:37:00;14.97;;;6.87;;
64957;SDS011;51486;50.232;19.208;2024-02-04T01:39:25;13.97;;;6.70;;
64957;SDS011;51486;50.232;19.208;2024-02-04T01:41:50;7.47;;;5.63;;
64957;SDS011;51486;50.232;19.208;2024-02-04T01:44:16;12.60;;;7.13;;
64957;SDS011;51486;50.232;19.208;2024-02-04T01:46:43;16.67;;;6.53;;
64957;SDS011;51486;50.232;19.208;2024-02-04T01:49:09;10.97;;;6.13;;
64957;SDS011;51486;50.232;19.208;2024-02-04T01:51:35;11.87;;;5.43;;
64957;SDS011;51486;50.232;19.208;2024-02-04T01:54:00;13.73;;;6.40;;
64957;SDS011;51486;50.232;19.208;2024-02-04T01:56:26;8.23;;;5.20;;
64957;SDS011;51486;50.232;19.208;2024-02-04T01:58:52;8.00;;;4.80;;
64957;SDS011;51486;50.232;19.208;2024-02-04T02:01:18;9.63;;;4.50;;
64957;SDS011;51486;50.232;19.208;2024-02-04T02:03:44;6.57;;;4.23;;
64957;SDS011;51486;50.232;19.208;2024-02-04T02:06:09;10.07;;;4.40;;
64957;SDS011;51486;50.232;19.208;2024-02-04T02:08:35;9.90;;;3.73;;
64957;SDS011;51486;50.232;19.208;2024-02-04T02:11:17;5.27;;;3.50;;
64957;SDS011;51486;50.232;19.208;2024-02-04T02:14:03;8.03;;;2.87;;
64957;SDS011;51486;50.232;19.208;2024-02-04T02:16:32;6.73;;;3.27;;
64957;SDS011;51486;50.232;19.208;2024-02-04T02:19:00;12.10;;;3.23;;
64957;SDS011;51486;50.232;19.208;2024-02-04T02:24:36;7.20;;;3.63;;
64957;SDS011;51486;50.232;19.208;2024-02-04T02:27:04;5.13;;;2.73;;
64957;SDS011;51486;50.232;19.208;2024-02-04T02:29:31;3.47;;;2.40;;
64957;SDS011;51486;50.232;19.208;2024-02-04T02:31:57;4.17;;;2.50;;
64957;SDS011;51486;50.232;19.208;2024-02-04T02:34:24;5.60;;;2.43;;
64957;SDS011;51486;50.232;19.208;2024-02-04T02:36:55;7.10;;;3.47;;
64957;SDS011;51486;50.232;19.208;2024-02-04T02:39:25;6.23;;;3.50;;
64957;SDS011;51486;50.232;19.208;2024-02-04T02:41:57;7.80;;;4.20;;
64957;SDS011;51486;50.232;19.208;2024-02-04T02:44:26;4.53;;;3.20;;
64957;SDS011;51486;50.232;19.208;2024-02-04T02:46:54;6.47;;;4.20;;
64957;SDS011;51486;50.232;19.208;2024-02-04T02:49:21;5.77;;;3.60;;
64957;SDS011;51486;50.232;19.208;2024-02-04T02:51:46;4.53;;;3.27;;
64957;SDS011;51486;50.232;19.208;2024-02-04T02:54:11;6.80;;;3.20;;
64957;SDS011;51486;50.232;19.208;2024-02-04T02:56:37;4.33;;;3.07;;
64957;SDS011;51486;50.232;19.208;2024-02-04T02:59:03;2.40;;;2.17;;
64957;SDS011;51486;50.232;19.208;2024-02-04T03:01:28;5.17;;;2.03;;
64957;SDS011;51486;50.232;19.208;2024-02-04T03:03:54;3.80;;;2.40;;
64957;SDS011;51486;50.232;19.208;2024-02-04T03:06:19;3.03;;;2.10;;
64957;SDS011;51486;50.232;19.208;2024-02-04T03:08:45;5.97;;;3.00;;
64957;SDS011;51486;50.232;19.208;2024-02-04T03:11:10;5.60;;;3.20;;
64957;SDS011;51486;50.232;19.208;2024-02-04T03:13:37;6.07;;;2.77;;
64957;SDS011;51486;50.232;19.208;2024-02-04T03:16:04;2.87;;;1.90;;
64957;SDS011;51486;50.232;19.208;2024-02-04T03:18:29;3.00;;;1.30;;
64957;SDS011;51486;50.232;19.208;2024-02-04T03:20:55;2.53;;;1.50;;
64957;SDS011;51486;50.232;19.208;2024-02-04T03:23:20;3.03;;;1.30;;
64957;SDS011;51486;50.232;19.208;2024-02-04T03:25:46;2.00;;;1.27;;
64957;SDS011;51486;50.232;19.208;2024-02-04T03:28:11;1.87;;;1.20;;
64957;SDS011;51486;50.232;19.208;2024-02-04T03:30:37;1.53;;;1.20;;
64957;SDS011;51486;50.232;19.208;2024-02-04T03:33:02;1.70;;;1.20;;
64957;SDS011;51486;50.232;19.208;2024-02-04T03:35:27;2.60;;;1.50;;
64957;SDS011;51486;50.232;19.208;2024-02-04T03:37:53;3.57;;;1.27;;
64957;SDS011;51486;50.232;19.208;2024-02-04T03:40:18;1.67;;;0.97;;
64957;SDS011;51486;50.232;19.208;2024-02-04T03:42:46;1.10;;;0.90;;
64957;SDS011;51486;50.232;19.208;2024-02-04T03:45:11;1.33;;;1.00;;
64957;SDS011;51486;50.232;19.208;2024-02-04T03:47:37;1.03;;;0.93;;
64957;SDS011;51486;50.232;19.208;2024-02-04T03:50:02;5.07;;;0.93;;
64957;SDS011;51486;50.232;19.208;2024-02-04T03:52:28;3.60;;;1.20;;
64957;SDS011;51486;50.232;19.208;2024-02-04T03:54:54;2.70;;;1.50;;
64957;SDS011;51486;50.232;19.208;2024-02-04T03:57:19;2.00;;;0.97;;
64957;SDS011;51486;50.232;19.208;2024-02-04T03:59:45;2.80;;;1.20;;
64957;SDS011;51486;50.232;19.208;2024-02-04T04:02:13;1.70;;;1.17;;
64957;SDS011;51486;50.232;19.208;2024-02-04T04:04:39;2.60;;;1.30;;
64957;SDS011;51486;50.232;19.208;2024-02-04T04:07:06;2.50;;;1.20;;
64957;SDS011;51486;50.232;19.208;2024-02-04T04:09:32;2.27;;;1.33;;
64957;SDS011;51486;50.232;19.208;2024-02-04T04:11:57;2.30;;;1.30;;
64957;SDS011;51486;50.232;19.208;2024-02-04T04:14:23;2.00;;;1.33;;
64957;SDS011;51486;50.232;19.208;2024-02-04T04:16:48;2.13;;;1.40;;
64957;SDS011;51486;50.232;19.208;2024-02-04T04:19:13;2.10;;;1.50;;
64957;SDS011;51486;50.232;19.208;2024-02-04T04:21:39;4.07;;;1.53;;
64957;SDS011;51486;50.232;19.208;2024-02-04T04:24:05;4.27;;;1.80;;
64957;SDS011;51486;50.232;19.208;2024-02-04T04:26:30;3.33;;;2.00;;
64957;SDS011;51486;50.232;19.208;2024-02-04T04:28:56;5.63;;;2.13;;
64957;SDS011;51486;50.232;19.208;2024-02-04T04:31:22;4.27;;;2.50;;
64957;SDS011;51486;50.232;19.208;2024-02-04T04:33:47;5.63;;;2.77;;
64957;SDS011;51486;50.232;19.208;2024-02-04T04:36:12;6.93;;;3.10;;
64957;SDS011;51486;50.232;19.208;2024-02-04T04:38:38;7.00;;;2.80;;
64957;SDS011;51486;50.232;19.208;2024-02-04T04:41:03;4.00;;;2.40;;
64957;SDS011;51486;50.232;19.208;2024-02-04T04:43:29;4.30;;;2.87;;
64957;SDS011;51486;50.232;19.208;2024-02-04T04:45:54;4.60;;;2.60;;
64957;SDS011;51486;50.232;19.208;2024-02-04T04:48:20;8.83;;;3.33;;
64957;SDS011;51486;50.232;19.208;2024-02-04T04:50:45;8.13;;;3.73;;
64957;SDS011;51486;50.232;19.208;2024-02-04T04:53:11;5.10;;;3.17;;
64957;SDS011;51486;50.232;19.208;2024-02-04T04:55:36;4.70;;;3.27;;
64957;SDS011;51486;50.232;19.208;2024-02-04T04:58:02;7.73;;;3.57;;
64957;SDS011;51486;50.232;19.208;2024-02-04T05:00:28;6.63;;;3.90;;
64957;SDS011;51486;50.232;19.208;2024-02-04T05:02:53;5.57;;;3.37;;
64957;SDS011;51486;50.232;19.208;2024-02-04T05:05:19;5.20;;;3.00;;
64957;SDS011;51486;50.232;19.208;2024-02-04T05:07:44;5.73;;;3.40;;
64957;SDS011;51486;50.232;19.208;2024-02-04T05:10:11;6.17;;;3.23;;
64957;SDS011;51486;50.232;19.208;2024-02-04T05:12:37;5.83;;;2.97;;
64957;SDS011;51486;50.232;19.208;2024-02-04T05:15:03;6.10;;;3.47;;
64957;SDS011;51486;50.232;19.208;2024-02-04T05:17:30;6.50;;;3.47;;
64957;SDS011;51486;50.232;19.208;2024-02-04T05:19:55;4.93;;;4.13;;
64957;SDS011;51486;50.232;19.208;2024-02-04T05:22:20;5.00;;;3.47;;
64957;SDS011;51486;50.232;19.208;2024-02-04T05:24:46;4.73;;;3.20;;
64957;SDS011;51486;50.232;19.208;2024-02-04T05:27:11;4.83;;;3.27;;
64957;SDS011;51486;50.232;19.208;2024-02-04T05:29:36;6.03;;;3.60;;
64957;SDS011;51486;50.232;19.208;2024-02-04T05:32:02;7.77;;;4.53;;
64957;SDS011;51486;50.232;19.208;2024-02-04T05:34:27;6.77;;;4.30;;
64957;SDS011;51486;50.232;19.208;2024-02-04T05:36:55;7.00;;;4.13;;
64957;SDS011;51486;50.232;19.208;2024-02-04T05:39:20;4.80;;;3.33;;
64957;SDS011;51486;50.232;19.208;2024-02-04T05:41:48;10.23;;;3.67;;
64957;SDS011;51486;50.232;19.208;2024-02-04T05:44:14;5.93;;;3.37;;
64957;SDS011;51486;50.232;19.208;2024-02-04T05:46:39;3.53;;;2.13;;
64957;SDS011;51486;50.232;19.208;2024-02-04T05:49:05;2.93;;;2.20;;
64957;SDS011;51486;50.232;19.208;2024-02-04T05:51:37;3.90;;;2.20;;
64957;SDS011;51486;50.232;19.208;2024-02-04T05:54:07;4.40;;;2.17;;
64957;SDS011;51486;50.232;19.208;2024-02-04T05:56:33;4.13;;;2.33;;
64957;SDS011;51486;50.232;19.208;2024-02-04T05:58:59;2.37;;;1.80;;
64957;SDS011;51486;50.232;19.208;2024-02-04T06:01:24;2.77;;;1.77;;
64957;SDS011;51486;50.232;19.208;2024-02-04T06:03:50;3.80;;;1.83;;
64957;SDS011;51486;50.232;19.208;2024-02-04T06:06:16;2.73;;;1.63;;
64957;SDS011;51486;50.232;19.208;2024-02-04T06:08:44;2.73;;;1.87;;
64957;SDS011;51486;50.232;19.208;2024-02-04T06:11:10;2.63;;;1.53;;
64957;SDS011;51486;50.232;19.208;2024-02-04T06:13:36;1.90;;;1.47;;
64957;SDS011;51486;50.232;19.208;2024-02-04T06:16:03;3.80;;;1.77;;
64957;SDS011;51486;50.232;19.208;2024-02-04T06:18:28;3.73;;;1.87;;
64957;SDS011;51486;50.232;19.208;2024-02-04T06:20:54;5.53;;;2.10;;
64957;SDS011;51486;50.232;19.208;2024-02-04T06:23:19;1.83;;;1.40;;
64957;SDS011;51486;50.232;19.208;2024-02-04T06:25:45;2.33;;;1.50;;
64957;SDS011;51486;50.232;19.208;2024-02-04T06:28:10;4.03;;;1.80;;
64957;SDS011;51486;50.232;19.208;2024-02-04T06:30:36;3.40;;;1.83;;
64957;SDS011;51486;50.232;19.208;2024-02-04T06:33:01;2.03;;;1.23;;
64957;SDS011;51486;50.232;19.208;2024-02-04T06:35:27;3.47;;;1.30;;
64957;SDS011;51486;50.232;19.208;2024-02-04T06:37:53;6.03;;;2.03;;
64957;SDS011;51486;50.232;19.208;2024-02-04T06:40:18;3.63;;;1.90;;
64957;SDS011;51486;50.232;19.208;2024-02-04T06:42:44;5.03;;;1.87;;
64957;SDS011;51486;50.232;19.208;2024-02-04T06:45:09;2.83;;;1.40;;
64957;SDS011;51486;50.232;19.208;2024-02-04T06:47:35;1.83;;;1.37;;
64957;SDS011;51486;50.232;19.208;2024-02-04T06:50:00;3.37;;;1.60;;
64957;SDS011;51486;50.232;19.208;2024-02-04T06:52:29;2.80;;;1.47;;
64957;SDS011;51486;50.232;19.208;2024-02-04T06:54:54;5.13;;;1.53;;
64957;SDS011;51486;50.232;19.208;2024-02-04T06:57:20;4.10;;;1.67;;
64957;SDS011;51486;50.232;19.208;2024-02-04T06:59:45;1.47;;;1.10;;
64957;SDS011;51486;50.232;19.208;2024-02-04T07:02:10;1.80;;;1.47;;
64957;SDS011;51486;50.232;19.208;2024-02-04T07:04:36;2.40;;;1.33;;
64957;SDS011;51486;50.232;19.208;2024-02-04T07:07:01;2.60;;;1.50;;
64957;SDS011;51486;50.232;19.208;2024-02-04T07:09:27;3.70;;;2.00;;
64957;SDS011;51486;50.232;19.208;2024-02-04T07:11:52;3.33;;;2.07;;
64957;SDS011;51486;50.232;19.208;2024-02-04T07:14:17;3.83;;;2.00;;
64957;SDS011;51486;50.232;19.208;2024-02-04T07:16:43;2.87;;;1.67;;
64957;SDS011;51486;50.232;19.208;2024-02-04T07:19:08;2.77;;;1.57;;
64957;SDS011;51486;50.232;19.208;2024-02-04T07:21:34;2.20;;;1.27;;
64957;SDS011;51486;50.232;19.208;2024-02-04T07:23:59;6.67;;;1.90;;
64957;SDS011;51486;50.232;19.208;2024-02-04T07:26:24;2.67;;;1.53;;
64957;SDS011;51486;50.232;19.208;2024-02-04T07:28:50;2.23;;;1.30;;
64957;SDS011;51486;50.232;19.208;2024-02-04T07:31:15;2.93;;;1.73;;
64957;SDS011;51486;50.232;19.208;2024-02-04T07:33:40;6.30;;;1.97;;
64957;SDS011;51486;50.232;19.208;2024-02-04T07:36:06;2.00;;;1.47;;
64957;SDS011;51486;50.232;19.208;2024-02-04T07:38:32;4.50;;;1.60;;
64957;SDS011;51486;50.232;19.208;2024-02-04T07:40:58;5.20;;;1.37;;
64957;SDS011;51486;50.232;19.208;2024-02-04T07:43:24;3.03;;;1.63;;
64957;SDS011;51486;50.232;19.208;2024-02-04T07:45:50;3.40;;;1.70;;
64957;SDS011;51486;50.232;19.208;2024-02-04T07:48:15;3.53;;;1.90;;
64957;SDS011;51486;50.232;19.208;2024-02-04T07:50:42;7.67;;;2.47;;
64957;SDS011;51486;50.232;19.208;2024-02-04T07:53:07;8.73;;;2.37;;
64957;SDS011;51486;50.232;19.208;2024-02-04T07:55:33;4.90;;;2.43;;
64957;SDS011;51486;50.232;19.208;2024-02-04T07:57:58;3.27;;;1.90;;
64957;SDS011;51486;50.232;19.208;2024-02-04T08:00:24;3.30;;;1.90;;
64957;SDS011;51486;50.232;19.208;2024-02-04T08:02:49;4.40;;;2.80;;
64957;SDS011;51486;50.232;19.208;2024-02-04T08:05:15;6.53;;;2.40;;
64957;SDS011;51486;50.232;19.208;2024-02-04T08:07:40;5.97;;;2.77;;
64957;SDS011;51486;50.232;19.208;2024-02-04T08:10:06;7.27;;;3.37;;
64957;SDS011;51486;50.232;19.208;2024-02-04T08:12:32;8.13;;;2.70;;
64957;SDS011;51486;50.232;19.208;2024-02-04T08:14:58;5.90;;;2.30;;
64957;SDS011;51486;50.232;19.208;2024-02-04T08:17:23;4.83;;;2.43;;
64957;SDS011;51486;50.232;19.208;2024-02-04T08:19:48;2.80;;;1.77;;
64957;SDS011;51486;50.232;19.208;2024-02-04T08:22:14;7.00;;;3.33;;
64957;SDS011;51486;50.232;19.208;2024-02-04T08:24:39;4.57;;;2.30;;
64957;SDS011;51486;50.232;19.208;2024-02-04T08:27:05;4.53;;;2.37;;
64957;SDS011;51486;50.232;19.208;2024-02-04T08:29:31;7.33;;;2.20;;
64957;SDS011;51486;50.232;19.208;2024-02-04T08:31:56;7.43;;;2.27;;
64957;SDS011;51486;50.232;19.208;2024-02-04T08:34:22;3.37;;;1.93;;
64957;SDS011;51486;50.232;19.208;2024-02-04T08:36:50;3.13;;;2.00;;
64957;SDS011;51486;50.232;19.208;2024-02-04T08:39:16;4.13;;;2.23;;
64957;SDS011;51486;50.232;19.208;2024-02-04T08:41:42;2.20;;;1.50;;
64957;SDS011;51486;50.232;19.208;2024-02-04T08:44:07;3.23;;;1.87;;
64957;SDS011;51486;50.232;19.208;2024-02-04T08:46:32;5.67;;;2.20;;
64957;SDS011;51486;50.232;19.208;2024-02-04T08:48:58;5.63;;;2.20;;
64957;SDS011;51486;50.232;19.208;2024-02-04T08:51:23;6.13;;;1.83;;
64957;SDS011;51486;50.232;19.208;2024-02-04T08:53:49;7.33;;;1.80;;
64957;SDS011;51486;50.232;19.208;2024-02-04T08:56:14;4.73;;;1.40;;
64957;SDS011;51486;50.232;19.208;2024-02-04T08:58:40;10.93;;;2.13;;
64957;SDS011;51486;50.232;19.208;2024-02-04T09:01:05;2.87;;;1.70;;
64957;SDS011;51486;50.232;19.208;2024-02-04T09:03:31;5.03;;;1.83;;
64957;SDS011;51486;50.232;19.208;2024-02-04T09:05:57;4.27;;;2.13;;
64957;SDS011;51486;50.232;19.208;2024-02-04T09:08:23;5.30;;;2.23;;
64957;SDS011;51486;50.232;19.208;2024-02-04T09:10:48;6.17;;;2.27;;
64957;SDS011;51486;50.232;19.208;2024-02-04T09:13:14;3.73;;;2.00;;
64957;SDS011;51486;50.232;19.208;2024-02-04T09:15:39;3.33;;;1.70;;
64957;SDS011;51486;50.232;19.208;2024-02-04T09:18:04;3.60;;;1.77;;
64957;SDS011;51486;50.232;19.208;2024-02-04T09:20:30;6.43;;;1.93;;
64957;SDS011;51486;50.232;19.208;2024-02-04T09:22:55;3.80;;;2.07;;
64957;SDS011;51486;50.232;19.208;2024-02-04T09:25:21;4.93;;;1.90;;
64957;SDS011;51486;50.232;19.208;2024-02-04T09:27:46;5.77;;;2.20;;
64957;SDS011;51486;50.232;19.208;2024-02-04T09:30:12;5.07;;;2.00;;
64957;SDS011;51486;50.232;19.208;2024-02-04T09:32:37;3.27;;;1.90;;
64957;SDS011;51486;50.232;19.208;2024-02-04T09:35:03;6.17;;;1.73;;
64957;SDS011;51486;50.232;19.208;2024-02-04T09:37:29;2.67;;;1.60;;
64957;SDS011;51486;50.232;19.208;2024-02-04T09:39:54;2.47;;;1.53;;
64957;SDS011;51486;50.232;19.208;2024-02-04T09:42:20;2.10;;;1.80;;
64957;SDS011;51486;50.232;19.208;2024-02-04T09:44:49;4.33;;;1.87;;
64957;SDS011;51486;50.232;19.208;2024-02-04T09:47:15;2.77;;;2.00;;
64957;SDS011;51486;50.232;19.208;2024-02-04T09:49:41;5.87;;;2.10;;
64957;SDS011;51486;50.232;19.208;2024-02-04T09:52:08;2.53;;;1.90;;
64957;SDS011;51486;50.232;19.208;2024-02-04T09:54:34;7.07;;;2.37;;
64957;SDS011;51486;50.232;19.208;2024-02-04T09:57:24;2.60;;;1.57;;
64957;SDS011;51486;50.232;19.208;2024-02-04T09:59:49;5.27;;;2.33;;
64957;SDS011;51486;50.232;19.208;2024-02-04T10:02:15;5.30;;;2.20;;
64957;SDS011;51486;50.232;19.208;2024-02-04T10:04:40;3.40;;;1.90;;
64957;SDS011;51486;50.232;19.208;2024-02-04T10:07:06;7.20;;;2.17;;
64957;SDS011;51486;50.232;19.208;2024-02-04T10:09:32;4.00;;;1.83;;
64957;SDS011;51486;50.232;19.208;2024-02-04T10:11:57;2.50;;;1.63;;
64957;SDS011;51486;50.232;19.208;2024-02-04T10:14:23;5.57;;;3.00;;
64957;SDS011;51486;50.232;19.208;2024-02-04T10:16:49;31.43;;;10.50;;
64957;SDS011;51486;50.232;19.208;2024-02-04T10:19:14;18.50;;;7.47;;
64957;SDS011;51486;50.232;19.208;2024-02-04T10:21:40;10.27;;;3.00;;
64957;SDS011;51486;50.232;19.208;2024-02-04T10:24:06;6.73;;;2.77;;
64957;SDS011;51486;50.232;19.208;2024-02-04T10:26:32;2.23;;;1.67;;
64957;SDS011;51486;50.232;19.208;2024-02-04T10:28:59;10.57;;;2.73;;
64957;SDS011;51486;50.232;19.208;2024-02-04T10:31:25;10.93;;;3.10;;
64957;SDS011;51486;50.232;19.208;2024-02-04T10:33:51;8.80;;;2.97;;
64957;SDS011;51486;50.232;19.208;2024-02-04T10:36:17;3.67;;;2.00;;
64957;SDS011;51486;50.232;19.208;2024-02-04T10:38:42;4.57;;;1.83;;
64957;SDS011;51486;50.232;19.208;2024-02-04T10:41:08;3.43;;;1.70;;
64957;SDS011;51486;50.232;19.208;2024-02-04T10:43:40;1.80;;;1.60;;
64957;SDS011;51486;50.232;19.208;2024-02-04T10:46:13;7.60;;;2.17;;
64957;SDS011;51486;50.232;19.208;2024-02-04T10:48:45;7.40;;;2.70;;
64957;SDS011;51486;50.232;19.208;2024-02-04T10:51:20;9.00;;;2.90;;
64957;SDS011;51486;50.232;19.208;2024-02-04T10:53:50;5.17;;;1.60;;
64957;SDS011;51486;50.232;19.208;2024-02-04T10:56:20;3.50;;;1.80;;
64957;SDS011;51486;50.232;19.208;2024-02-04T10:58:48;6.60;;;2.00;;
64957;SDS011;51486;50.232;19.208;2024-02-04T11:01:14;6.37;;;2.50;;
64957;SDS011;51486;50.232;19.208;2024-02-04T11:03:40;5.57;;;2.30;;
64957;SDS011;51486;50.232;19.208;2024-02-04T11:06:07;2.60;;;1.80;;
64957;SDS011;51486;50.232;19.208;2024-02-04T11:08:33;9.03;;;2.10;;
64957;SDS011;51486;50.232;19.208;2024-02-04T11:10:59;4.07;;;1.80;;
64957;SDS011;51486;50.232;19.208;2024-02-04T11:13:25;4.23;;;1.83;;
64957;SDS011;51486;50.232;19.208;2024-02-04T11:15:53;7.67;;;2.40;;
64957;SDS011;51486;50.232;19.208;2024-02-04T11:20:59;2.67;;;1.80;;
64957;SDS011;51486;50.232;19.208;2024-02-04T11:26:18;2.67;;;1.63;;
64957;SDS011;51486;50.232;19.208;2024-02-04T11:28:44;6.03;;;2.63;;
64957;SDS011;51486;50.232;19.208;2024-02-04T11:31:18;4.20;;;1.87;;
64957;SDS011;51486;50.232;19.208;2024-02-04T11:33:44;5.17;;;2.33;;
64957;SDS011;51486;50.232;19.208;2024-02-04T11:36:13;3.80;;;2.10;;
64957;SDS011;51486;50.232;19.208;2024-02-04T11:38:40;5.73;;;1.90;;
64957;SDS011;51486;50.232;19.208;2024-02-04T11:41:06;5.70;;;2.10;;
64957;SDS011;51486;50.232;19.208;2024-02-04T11:43:33;15.70;;;2.60;;
64957;SDS011;51486;50.232;19.208;2024-02-04T11:45:59;8.83;;;2.60;;
64957;SDS011;51486;50.232;19.208;2024-02-04T11:48:32;5.47;;;2.27;;
64957;SDS011;51486;50.232;19.208;2024-02-04T11:50:58;3.07;;;1.97;;
64957;SDS011;51486;50.232;19.208;2024-02-04T11:53:28;12.20;;;3.00;;
64957;SDS011;51486;50.232;19.208;2024-02-04T11:55:57;7.70;;;3.07;;
64957;SDS011;51486;50.232;19.208;2024-02-04T11:58:23;4.30;;;2.67;;
64957;SDS011;51486;50.232;19.208;2024-02-04T12:00:50;11.90;;;3.10;;
64957;SDS011;51486;50.232;19.208;2024-02-04T12:03:27;4.97;;;2.70;;
64957;SDS011;51486;50.232;19.208;2024-02-04T12:05:57;8.70;;;3.07;;
64957;SDS011;51486;50.232;19.208;2024-02-04T12:08:23;4.03;;;2.67;;
64957;SDS011;51486;50.232;19.208;2024-02-04T12:10:49;3.13;;;2.30;;
64957;SDS011;51486;50.232;19.208;2024-02-04T12:13:14;5.43;;;2.87;;
64957;SDS011;51486;50.232;19.208;2024-02-04T12:15:40;5.97;;;3.23;;
64957;SDS011;51486;50.232;19.208;2024-02-04T12:18:08;5.03;;;3.07;;
64957;SDS011;51486;50.232;19.208;2024-02-04T12:20:35;5.23;;;2.87;;
64957;SDS011;51486;50.232;19.208;2024-02-04T12:23:02;4.87;;;2.77;;
64957;SDS011;51486;50.232;19.208;2024-02-04T12:25:28;5.20;;;2.93;;
64957;SDS011;51486;50.232;19.208;2024-02-04T12:27:55;8.37;;;3.83;;
64957;SDS011;51486;50.232;19.208;2024-02-04T12:30:26;4.87;;;3.03;;
64957;SDS011;51486;50.232;19.208;2024-02-04T12:32:55;6.87;;;3.23;;
64957;SDS011;51486;50.232;19.208;2024-02-04T12:35:24;5.30;;;3.27;;
64957;SDS011;51486;50.232;19.208;2024-02-04T12:37:53;4.27;;;2.93;;
64957;SDS011;51486;50.232;19.208;2024-02-04T12:40:24;9.33;;;4.13;;
64957;SDS011;51486;50.232;19.208;2024-02-04T12:42:54;10.10;;;3.63;;
64957;SDS011;51486;50.232;19.208;2024-02-04T12:45:24;8.10;;;4.10;;
64957;SDS011;51486;50.232;19.208;2024-02-04T12:47:51;11.40;;;5.17;;
64957;SDS011;51486;50.232;19.208;2024-02-04T12:50:17;9.97;;;5.17;;
64957;SDS011;51486;50.232;19.208;2024-02-04T12:52:44;11.13;;;5.77;;
64957;SDS011;51486;50.232;19.208;2024-02-04T12:55:20;17.17;;;6.70;;
64957;SDS011;51486;50.232;19.208;2024-02-04T12:57:47;18.03;;;7.20;;
64957;SDS011;51486;50.232;19.208;2024-02-04T13:00:13;15.43;;;6.93;;
64957;SDS011;51486;50.232;19.208;2024-02-04T13:02:42;16.30;;;6.83;;
64957;SDS011;51486;50.232;19.208;2024-02-04T13:05:08;17.33;;;7.57;;
64957;SDS011;51486;50.232;19.208;2024-02-04T13:07:34;13.00;;;6.27;;
64957;SDS011;51486;50.232;19.208;2024-02-04T13:10:00;14.03;;;7.13;;
64957;SDS011;51486;50.232;19.208;2024-02-04T13:12:25;17.80;;;6.63;;
64957;SDS011;51486;50.232;19.208;2024-02-04T13:14:51;12.33;;;6.97;;
64957;SDS011;51486;50.232;19.208;2024-02-04T13:17:16;12.77;;;6.90;;
64957;SDS011;51486;50.232;19.208;2024-02-04T13:19:42;12.23;;;6.80;;
64957;SDS011;51486;50.232;19.208;2024-02-04T13:22:08;14.33;;;7.23;;
64957;SDS011;51486;50.232;19.208;2024-02-04T13:24:38;16.70;;;8.03;;
64957;SDS011;51486;50.232;19.208;2024-02-04T13:27:04;17.53;;;7.80;;
64957;SDS011;51486;50.232;19.208;2024-02-04T13:29:31;17.33;;;7.93;;
64957;SDS011;51486;50.232;19.208;2024-02-04T13:31:56;20.97;;;7.80;;
64957;SDS011;51486;50.232;19.208;2024-02-04T13:34:22;19.20;;;7.77;;
64957;SDS011;51486;50.232;19.208;2024-02-04T13:36:47;13.60;;;7.13;;
64957;SDS011;51486;50.232;19.208;2024-02-04T13:39:13;14.57;;;7.33;;
64957;SDS011;51486;50.232;19.208;2024-02-04T13:41:39;24.93;;;8.63;;
64957;SDS011;51486;50.232;19.208;2024-02-04T13:44:05;16.73;;;7.57;;
64957;SDS011;51486;50.232;19.208;2024-02-04T13:46:31;14.60;;;8.07;;
64957;SDS011;51486;50.232;19.208;2024-02-04T13:48:57;13.83;;;7.17;;
64957;SDS011;51486;50.232;19.208;2024-02-04T13:51:22;14.83;;;7.20;;
64957;SDS011;51486;50.232;19.208;2024-02-04T13:53:47;11.10;;;5.97;;
64957;SDS011;51486;50.232;19.208;2024-02-04T13:56:13;12.47;;;5.37;;
64957;SDS011;51486;50.232;19.208;2024-02-04T13:58:38;8.43;;;4.40;;
64957;SDS011;51486;50.232;19.208;2024-02-04T14:01:04;6.93;;;4.37;;
64957;SDS011;51486;50.232;19.208;2024-02-04T14:03:29;8.63;;;4.67;;
64957;SDS011;51486;50.232;19.208;2024-02-04T14:05:54;17.23;;;4.30;;
64957;SDS011;51486;50.232;19.208;2024-02-04T14:08:20;10.70;;;4.97;;
64957;SDS011;51486;50.232;19.208;2024-02-04T14:10:46;9.73;;;5.53;;
64957;SDS011;51486;50.232;19.208;2024-02-04T14:13:12;11.03;;;4.73;;
64957;SDS011;51486;50.232;19.208;2024-02-04T14:15:37;8.53;;;4.17;;
64957;SDS011;51486;50.232;19.208;2024-02-04T14:18:03;8.77;;;4.83;;
64957;SDS011;51486;50.232;19.208;2024-02-04T14:20:29;8.87;;;4.53;;
64957;SDS011;51486;50.232;19.208;2024-02-04T14:22:54;8.83;;;4.37;;
64957;SDS011;51486;50.232;19.208;2024-02-04T14:25:21;6.47;;;3.67;;
64957;SDS011;51486;50.232;19.208;2024-02-04T14:27:49;7.90;;;3.77;;
64957;SDS011;51486;50.232;19.208;2024-02-04T14:30:16;5.70;;;3.27;;
64957;SDS011;51486;50.232;19.208;2024-02-04T14:32:41;4.70;;;2.87;;
64957;SDS011;51486;50.232;19.208;2024-02-04T14:35:07;6.33;;;3.00;;